Time;durP1;ratioP1;P1;durP2;ratioP2;P2;SDS_P1;SDS_P2;PMS_P1;PMS_P2;Temp;Humidity;BMP_temperature;BMP_pressure;BME280_temperature;BME280_humidity;BME280_pressure;Samples;Min_cycle;Max_cycle;Signal;HPM_P1;HPM_P2
2021/07/26 00:00:06;;;;;;;;;;;16.90;99.90;;;;;;5091457;28;19956;-74
2021/07/26 00:02:37;;;;;;;;;;;16.90;99.90;;;;;;5092337;28;19928;-74
2021/07/26 00:05:10;;;;;;;;;;;16.90;99.90;;;;;;5074963;28;20026;-74
2021/07/26 00:07:41;;;;;;;;;;;16.90;99.90;;;;;;5091910;28;20022;-74
2021/07/26 00:10:13;;;;;;;;;;;16.90;99.90;;;;;;5091730;28;19924;-74
2021/07/26 00:12:44;;;;;;;;;;;16.90;99.90;;;;;;5074666;28;19924;-74
2021/07/26 00:15:11;;;;;;;;;;;17.00;99.90;;;;;;5091452;28;20020;-74
2021/07/26 00:17:38;;;;;;;;;;;17.00;99.90;;;;;;5073466;28;19966;-74
2021/07/26 00:20:05;;;;;;;;;;;17.00;99.90;;;;;;5091453;28;20290;-74
2021/07/26 00:22:31;;;;;;;;;;;17.10;99.90;;;;;;5091384;28;19978;-74
2021/07/26 00:24:58;;;;;;;;;;;17.10;99.90;;;;;;5091028;28;19958;-74
2021/07/26 00:27:31;;;;;;;;;;;17.00;99.90;;;;;;5092333;28;19967;-74
2021/07/26 00:30:03;;;;;;;;;;;17.00;99.90;;;;;;5090835;28;19955;-75
2021/07/26 00:32:34;;;;;;;;;;;16.90;99.90;;;;;;5090683;28;19924;-74
2021/07/26 00:35:01;;;;;;;;;;;16.90;99.90;;;;;;5074213;28;20015;-74
2021/07/26 00:37:33;;;;;;;;;;;16.90;99.90;;;;;;5090955;28;20393;-74
2021/07/26 00:40:09;;;;;;;;;;;17.00;99.90;;;;;;5092246;28;19928;-74
2021/07/26 00:42:40;;;;;;;;;;;17.00;99.90;;;;;;5090216;28;19960;-73
2021/07/26 00:45:07;;;;;;;;;;;17.00;99.90;;;;;;5091978;28;19924;-74
2021/07/26 00:47:39;;;;;;;;;;;17.00;99.90;;;;;;5074505;28;20392;-74
2021/07/26 00:50:11;;;;;;;;;;;17.00;99.90;;;;;;5090821;28;20026;-73
2021/07/26 00:52:42;;;;;;;;;;;17.00;99.90;;;;;;5091402;28;19925;-74
2021/07/26 00:55:14;;;;;;;;;;;17.10;99.90;;;;;;5091818;28;20018;-74
2021/07/26 00:57:46;;;;;;;;;;;17.10;99.90;;;;;;5089941;28;19924;-74
2021/07/26 01:00:18;;;;;;;;;;;17.10;99.90;;;;;;5089893;28;19928;-74
2021/07/26 01:02:49;;;;;;;;;;;17.10;99.90;;;;;;5089956;28;19990;-74
2021/07/26 01:05:21;;;;;;;;;;;17.10;99.90;;;;;;5091827;28;20030;-74
2021/07/26 01:07:53;;;;;;;;;;;17.10;99.90;;;;;;5090465;28;19924;-75
2021/07/26 01:10:24;;;;;;;;;;;17.00;99.90;;;;;;5074441;28;19998;-74
2021/07/26 01:12:56;;;;;;;;;;;17.00;99.90;;;;;;5089684;28;19924;-73
2021/07/26 01:15:28;;;;;;;;;;;17.00;99.90;;;;;;5089635;28;20022;-74
2021/07/26 01:18:20;;;;;;;;;;;17.00;99.90;;;;;;5089383;28;19962;-75
2021/07/26 01:20:54;;;;;;;;;;;17.00;99.90;;;;;;5089926;28;20014;-74
2021/07/26 01:23:27;;;;;;;;;;;16.90;99.90;;;;;;5089725;28;19978;-74
2021/07/26 01:25:58;;;;;;;;;;;16.90;99.90;;;;;;5091311;28;19924;-74
2021/07/26 01:28:33;;;;;;;;;;;17.00;99.90;;;;;;5091997;28;20014;-74
2021/07/26 01:31:00;;;;;;;;;;;17.00;99.90;;;;;;5092802;28;19971;-74
2021/07/26 01:33:32;;;;;;;;;;;17.00;99.90;;;;;;5094365;28;20305;-73
2021/07/26 01:36:04;;;;;;;;;;;16.90;99.90;;;;;;5094513;28;20022;-74
2021/07/26 01:38:35;;;;;;;;;;;16.90;99.90;;;;;;5078202;28;20027;-73
2021/07/26 01:41:07;;;;;;;;;;;16.90;99.90;;;;;;5093843;28;20156;-74
2021/07/26 01:44:02;;;;;;;;;;;16.90;99.90;;;;;;5094425;28;19946;-74
2021/07/26 01:46:51;;;;;;;;;;;16.90;99.90;;;;;;5078279;28;19956;-74
2021/07/26 01:49:30;;;;;;;;;;;16.90;99.90;;;;;;5093936;28;19934;-75
2021/07/26 01:52:02;;;;;;;;;;;16.90;99.90;;;;;;5077478;28;19946;-74
2021/07/26 01:54:28;;;;;;;;;;;16.90;99.90;;;;;;5094035;28;19989;-74
2021/07/26 01:57:00;;;;;;;;;;;16.90;99.90;;;;;;5094360;28;20026;-74
2021/07/26 01:59:28;;;;;;;;;;;16.80;99.90;;;;;;5094060;28;19967;-75
2021/07/26 02:01:55;;;;;;;;;;;16.90;99.90;;;;;;5093811;28;20461;-74
2021/07/26 02:04:27;;;;;;;;;;;16.80;99.90;;;;;;5077696;28;19931;-74
2021/07/26 02:06:59;;;;;;;;;;;16.80;99.90;;;;;;5095157;28;20031;-74
2021/07/26 02:09:30;;;;;;;;;;;16.80;99.90;;;;;;5093802;28;20039;-75
2021/07/26 02:11:57;;;;;;;;;;;16.80;99.90;;;;;;5093524;28;20039;-74
2021/07/26 02:14:29;;;;;;;;;;;16.80;99.90;;;;;;5094711;28;20345;-74
2021/07/26 02:16:56;;;;;;;;;;;16.80;99.90;;;;;;5077022;28;20395;-74
2021/07/26 02:19:28;;;;;;;;;;;16.80;99.90;;;;;;5077722;28;20397;-74
2021/07/26 02:22:00;;;;;;;;;;;16.80;99.90;;;;;;5093839;28;20022;-74
2021/07/26 02:24:31;;;;;;;;;;;16.80;99.90;;;;;;5077646;28;19924;-74
2021/07/26 02:26:58;;;;;;;;;;;16.90;99.90;;;;;;5094509;28;20026;-74
2021/07/26 02:29:30;;;;;;;;;;;16.90;99.90;;;;;;5093931;28;20317;-74
2021/07/26 02:32:01;;;;;;;;;;;16.90;99.90;;;;;;5094243;28;20015;-74
2021/07/26 02:34:28;;;;;;;;;;;16.90;99.90;;;;;;5076180;28;20344;-74
2021/07/26 02:37:00;;;;;;;;;;;16.90;99.90;;;;;;5093421;28;19954;-74
2021/07/26 02:39:31;;;;;;;;;;;16.80;99.90;;;;;;5094376;28;20258;-74
2021/07/26 02:41:58;;;;;;;;;;;16.80;99.90;;;;;;5075298;28;19981;-74
2021/07/26 02:44:30;;;;;;;;;;;16.80;99.90;;;;;;5076870;28;20011;-74
2021/07/26 02:47:01;;;;;;;;;;;16.80;99.90;;;;;;5092896;28;19924;-74
2021/07/26 02:49:28;;;;;;;;;;;16.80;99.90;;;;;;5092853;28;20014;-74
2021/07/26 02:51:55;;;;;;;;;;;16.80;99.90;;;;;;5075665;28;19970;-74
2021/07/26 02:54:26;;;;;;;;;;;16.80;99.90;;;;;;5093922;28;19924;-74
2021/07/26 02:56:58;;;;;;;;;;;16.80;99.90;;;;;;5092972;28;19928;-74
2021/07/26 02:59:29;;;;;;;;;;;16.80;99.90;;;;;;5092613;28;19924;-74
2021/07/26 03:02:01;;;;;;;;;;;16.80;99.90;;;;;;5093848;28;19982;-74
2021/07/26 03:04:29;;;;;;;;;;;16.80;99.90;;;;;;5075772;28;19932;-74
2021/07/26 03:06:56;;;;;;;;;;;16.80;99.90;;;;;;5092660;28;20023;-74
2021/07/26 03:09:28;;;;;;;;;;;16.80;99.90;;;;;;5093795;28;20047;-74
2021/07/26 03:11:59;;;;;;;;;;;16.80;99.90;;;;;;5075883;28;20023;-75
2021/07/26 03:14:27;;;;;;;;;;;16.80;99.90;;;;;;5092370;28;19969;-74
2021/07/26 03:17:03;;;;;;;;;;;16.80;99.90;;;;;;5093965;28;19979;-74
2021/07/26 03:19:35;;;;;;;;;;;16.80;99.90;;;;;;5134855;23;19943;-74
2021/07/26 03:22:16;;;;;;;;;;;16.80;99.90;;;;;;5040378;28;20012;-74
2021/07/26 03:24:48;;;;;;;;;;;16.80;99.90;;;;;;5056218;28;19935;-74
2021/07/26 03:27:16;;;;;;;;;;;16.80;99.90;;;;;;5068628;28;20023;-74
2021/07/26 03:29:42;;;;;;;;;;;16.80;99.90;;;;;;5051858;28;20150;-74
2021/07/26 03:32:09;;;;;;;;;;;16.80;99.90;;;;;;5052805;28;20425;-74
2021/07/26 03:34:41;;;;;;;;;;;16.80;99.90;;;;;;5036176;28;20379;-74
2021/07/26 03:37:12;;;;;;;;;;;16.80;99.90;;;;;;5051780;28;20019;-74
2021/07/26 03:39:45;;;;;;;;;;;16.80;99.90;;;;;;5053365;28;19964;-74
2021/07/26 03:42:16;;;;;;;;;;;16.80;99.90;;;;;;5035368;28;20386;-74
2021/07/26 03:44:43;;;;;;;;;;;16.80;99.90;;;;;;5051410;28;19931;-74
2021/07/26 03:47:15;;;;;;;;;;;16.80;99.90;;;;;;5053014;28;19959;-74
2021/07/26 03:49:46;;;;;;;;;;;16.80;99.90;;;;;;5035214;28;19924;-74
2021/07/26 03:52:13;;;;;;;;;;;16.80;99.90;;;;;;5049436;28;19929;-74
2021/07/26 03:54:45;;;;;;;;;;;16.90;99.90;;;;;;5050704;28;19931;-74
2021/07/26 03:57:16;;;;;;;;;;;16.90;99.90;;;;;;5034922;28;19999;-74
2021/07/26 03:59:43;;;;;;;;;;;16.90;99.90;;;;;;5051062;28;19924;-74
2021/07/26 04:02:10;;;;;;;;;;;16.90;99.90;;;;;;5052588;28;20298;-74
2021/07/26 04:04:42;;;;;;;;;;;16.90;99.90;;;;;;5035547;28;19976;-74
2021/07/26 04:07:17;;;;;;;;;;;16.90;99.90;;;;;;5050762;28;20399;-74
2021/07/26 04:09:55;;;;;;;;;;;16.90;99.90;;;;;;5051754;28;20386;-74
2021/07/26 04:12:25;;;;;;;;;;;16.90;99.90;;;;;;5033412;28;19924;-75
2021/07/26 04:14:52;;;;;;;;;;;16.90;99.90;;;;;;5080137;28;19967;-74
2021/07/26 04:17:18;;;;;;;;;;;16.90;99.90;;;;;;5053796;28;19964;-74
2021/07/26 04:19:50;;;;;;;;;;;16.90;99.90;;;;;;5070341;28;20398;-74
2021/07/26 04:22:22;;;;;;;;;;;16.90;99.90;;;;;;5065910;28;19930;-74
2021/07/26 04:24:50;;;;;;;;;;;16.90;99.90;;;;;;5071503;28;19971;-74
2021/07/26 04:27:17;;;;;;;;;;;16.90;99.90;;;;;;5070248;28;20674;-74
2021/07/26 04:29:49;;;;;;;;;;;16.90;99.90;;;;;;5070331;28;19931;-74
2021/07/26 04:32:21;;;;;;;;;;;16.90;99.90;;;;;;5061440;28;19935;-74
2021/07/26 04:34:52;;;;;;;;;;;16.90;99.90;;;;;;5034999;28;19998;-75
2021/07/26 04:37:24;;;;;;;;;;;16.90;99.90;;;;;;5035310;28;19925;-75
2021/07/26 04:39:50;;;;;;;;;;;16.90;99.90;;;;;;5052581;28;20032;-74
2021/07/26 04:42:17;;;;;;;;;;;16.90;99.90;;;;;;5056229;28;20023;-74
2021/07/26 04:44:44;;;;;;;;;;;16.80;99.90;;;;;;5052744;28;19931;-74
2021/07/26 04:47:10;;;;;;;;;;;16.80;99.90;;;;;;5070211;28;19928;-74
2021/07/26 04:49:37;;;;;;;;;;;16.80;99.90;;;;;;5069940;28;19931;-73
2021/07/26 04:52:09;;;;;;;;;;;16.70;99.90;;;;;;5069494;28;20335;-74
2021/07/26 04:54:42;;;;;;;;;;;16.70;99.90;;;;;;5053945;28;20050;-74
2021/07/26 04:57:08;;;;;;;;;;;16.70;99.90;;;;;;5053486;28;20052;-74
2021/07/26 04:59:40;;;;;;;;;;;16.70;99.90;;;;;;5071312;28;19970;-75
2021/07/26 05:02:12;;;;;;;;;;;16.70;99.90;;;;;;5053549;28;19943;-74
2021/07/26 05:04:43;;;;;;;;;;;16.70;99.90;;;;;;5068312;28;19937;-74
2021/07/26 05:07:10;;;;;;;;;;;16.80;99.90;;;;;;5071367;28;19924;-76
2021/07/26 05:09:38;;;;;;;;;;;16.80;99.90;;;;;;5071478;28;19967;-74
2021/07/26 05:12:12;;;;;;;;;;;16.80;99.90;;;;;;5052902;28;20604;-73
2021/07/26 05:14:47;;;;;;;;;;;16.90;99.90;;;;;;5054089;28;19951;-74
2021/07/26 05:17:17;;;;;;;;;;;16.90;99.90;;;;;;5070490;28;20027;-74
2021/07/26 05:19:43;;;;;;;;;;;16.90;99.90;;;;;;5053962;28;20369;-74
2021/07/26 05:22:10;;;;;;;;;;;16.90;99.90;;;;;;5053689;28;19931;-74
2021/07/26 05:24:37;;;;;;;;;;;17.00;99.90;;;;;;5054151;28;19925;-74
2021/07/26 05:27:07;;;;;;;;;;;17.00;99.90;;;;;;5071555;28;20026;-75
2021/07/26 05:29:34;;;;;;;;;;;17.00;99.90;;;;;;5070316;28;20066;-74
2021/07/26 05:32:01;;;;;;;;;;;17.00;99.90;;;;;;5069752;28;19967;-74
2021/07/26 05:34:33;;;;;;;;;;;17.00;99.90;;;;;;5070100;28;19924;-74
2021/07/26 05:37:05;;;;;;;;;;;17.00;99.90;;;;;;5070308;28;20019;-74
2021/07/26 05:39:37;;;;;;;;;;;17.00;99.90;;;;;;5061788;28;19929;-74
2021/07/26 05:42:06;;;;;;;;;;;17.10;99.90;;;;;;5065812;28;19957;-74
2021/07/26 05:44:39;;;;;;;;;;;17.10;99.90;;;;;;5070007;28;19931;-73
2021/07/26 05:47:13;;;;;;;;;;;17.10;99.90;;;;;;5070466;28;20338;-75
2021/07/26 05:49:44;;;;;;;;;;;17.20;99.90;;;;;;5054078;28;19928;-74
2021/07/26 05:52:11;;;;;;;;;;;17.20;99.90;;;;;;5086304;28;19935;-74
2021/07/26 05:54:43;;;;;;;;;;;17.20;99.90;;;;;;5060475;28;19993;-74
2021/07/26 05:57:15;;;;;;;;;;;17.20;99.90;;;;;;5078462;28;19924;-74
2021/07/26 05:59:51;;;;;;;;;;;17.30;99.90;;;;;;5069804;28;20386;-74
2021/07/26 06:02:18;;;;;;;;;;;17.30;99.90;;;;;;5065772;28;19964;-74
2021/07/26 06:04:44;;;;;;;;;;;17.30;99.90;;;;;;5070503;28;19959;-74
2021/07/26 06:07:11;;;;;;;;;;;17.40;99.90;;;;;;5071203;28;19956;-74
2021/07/26 06:09:46;;;;;;;;;;;17.50;99.90;;;;;;5052084;28;19974;-73
2021/07/26 06:12:17;;;;;;;;;;;17.50;99.90;;;;;;5049379;28;20015;-74
2021/07/26 06:14:49;;;;;;;;;;;17.60;99.90;;;;;;5050046;28;19924;-74
2021/07/26 06:17:23;;;;;;;;;;;17.70;99.90;;;;;;5058298;28;20441;-74
2021/07/26 06:19:55;;;;;;;;;;;17.70;99.90;;;;;;5070055;28;19972;-75
2021/07/26 06:22:21;;;;;;;;;;;17.80;99.90;;;;;;5060187;28;20057;-74
2021/07/26 06:24:48;;;;;;;;;;;17.80;99.90;;;;;;5062946;28;20015;-75
2021/07/26 06:27:16;;;;;;;;;;;17.90;99.90;;;;;;5070994;28;20466;-74
2021/07/26 06:29:52;;;;;;;;;;;17.90;99.90;;;;;;5055729;28;19931;-75
2021/07/26 06:32:24;;;;;;;;;;;17.90;99.90;;;;;;5072519;28;20002;-74
2021/07/26 06:34:56;;;;;;;;;;;17.90;99.90;;;;;;5070598;28;19925;-74
2021/07/26 06:37:22;;;;;;;;;;;17.90;99.90;;;;;;5069725;28;20031;-74
2021/07/26 06:39:54;;;;;;;;;;;17.90;99.90;;;;;;5052798;28;19978;-74
2021/07/26 06:42:27;;;;;;;;;;;17.90;99.90;;;;;;5053386;28;19990;-74
2021/07/26 06:44:53;;;;;;;;;;;17.90;99.90;;;;;;5074599;28;19960;-74
2021/07/26 06:47:25;;;;;;;;;;;17.80;99.90;;;;;;5072732;28;19979;-74
2021/07/26 06:49:59;;;;;;;;;;;17.80;99.90;;;;;;5072894;28;19931;-74
2021/07/26 06:52:31;;;;;;;;;;;17.70;99.90;;;;;;5072189;28;19978;-74
2021/07/26 06:55:03;;;;;;;;;;;17.70;99.90;;;;;;5071944;28;20020;-74
2021/07/26 06:57:31;;;;;;;;;;;17.70;99.90;;;;;;5068875;28;19975;-74
2021/07/26 06:59:57;;;;;;;;;;;17.80;99.90;;;;;;5066257;28;19925;-74
2021/07/26 07:02:29;;;;;;;;;;;17.80;99.90;;;;;;5072683;28;19924;-73
2021/07/26 07:04:58;;;;;;;;;;;17.80;99.90;;;;;;5065173;28;19924;-74
2021/07/26 07:07:30;;;;;;;;;;;17.80;99.90;;;;;;5071455;28;19947;-74
2021/07/26 07:10:01;;;;;;;;;;;17.90;99.90;;;;;;5073188;28;19928;-74
2021/07/26 07:12:28;;;;;;;;;;;17.80;99.90;;;;;;5063397;28;19929;-76
2021/07/26 07:14:55;;;;;;;;;;;17.80;99.90;;;;;;5053538;28;20359;-74
2021/07/26 07:17:26;;;;;;;;;;;17.80;99.90;;;;;;5067158;28;20011;-75
2021/07/26 07:19:58;;;;;;;;;;;17.80;99.90;;;;;;5055875;28;19924;-74
2021/07/26 07:22:30;;;;;;;;;;;17.90;99.90;;;;;;5072846;28;19925;-74
2021/07/26 07:25:02;;;;;;;;;;;17.90;99.90;;;;;;5070220;28;19974;-74
2021/07/26 07:27:37;;;;;;;;;;;17.90;99.90;;;;;;5072805;28;20023;-74
2021/07/26 07:30:04;;;;;;;;;;;17.90;99.90;;;;;;5071417;28;19971;-74
2021/07/26 07:32:32;;;;;;;;;;;17.90;99.90;;;;;;5072478;28;19924;-74
2021/07/26 07:35:03;;;;;;;;;;;17.80;99.90;;;;;;5069476;28;20201;-74
2021/07/26 07:37:30;;;;;;;;;;;17.80;99.90;;;;;;5072226;28;19970;-74
2021/07/26 07:39:58;;;;;;;;;;;17.90;99.90;;;;;;5066380;28;20406;-74
2021/07/26 07:42:32;;;;;;;;;;;17.90;99.90;;;;;;5051343;28;19956;-74
2021/07/26 07:45:03;;;;;;;;;;;18.00;99.90;;;;;;5053916;28;19964;-76
2021/07/26 07:47:35;;;;;;;;;;;18.00;99.90;;;;;;5059681;28;19924;-74
2021/07/26 07:50:05;;;;;;;;;;;18.10;99.90;;;;;;5071787;28;20328;-74
2021/07/26 07:52:36;;;;;;;;;;;18.10;99.90;;;;;;5071752;28;19925;-75
2021/07/26 07:55:03;;;;;;;;;;;18.20;99.90;;;;;;5069004;28;20007;-75
2021/07/26 07:57:38;;;;;;;;;;;18.20;99.90;;;;;;5071500;28;19968;-75
2021/07/26 08:00:10;;;;;;;;;;;18.30;99.90;;;;;;5071968;28;20360;-75
2021/07/26 08:02:41;;;;;;;;;;;18.40;99.90;;;;;;5071144;28;19970;-75
2021/07/26 08:05:14;;;;;;;;;;;18.40;99.90;;;;;;5063683;28;20012;-74
2021/07/26 08:07:47;;;;;;;;;;;18.50;99.90;;;;;;5069149;28;19952;-74
2021/07/26 08:10:18;;;;;;;;;;;18.60;99.90;;;;;;5068083;28;19925;-75
2021/07/26 08:12:50;;;;;;;;;;;18.70;99.90;;;;;;5066724;28;20314;-74
2021/07/26 08:15:22;;;;;;;;;;;18.70;99.90;;;;;;5055969;28;20007;-74
2021/07/26 08:17:49;;;;;;;;;;;18.80;99.90;;;;;;5071346;28;20331;-75
2021/07/26 08:20:17;;;;;;;;;;;18.90;99.90;;;;;;5071228;28;19929;-74
2021/07/26 08:22:48;;;;;;;;;;;18.90;99.90;;;;;;5070661;28;19924;-75
2021/07/26 08:25:15;;;;;;;;;;;19.00;99.90;;;;;;5080875;28;19974;-75
2021/07/26 08:27:52;;;;;;;;;;;19.00;99.90;;;;;;5068543;28;21540;-76
2021/07/26 08:30:25;;;;;;;;;;;19.10;99.90;;;;;;5072369;28;19974;-74
2021/07/26 08:32:57;;;;;;;;;;;19.20;99.90;;;;;;5070883;28;19964;-75
2021/07/26 08:35:25;;;;;;;;;;;19.20;99.90;;;;;;5050125;28;20019;-74
2021/07/26 08:37:57;;;;;;;;;;;19.30;99.90;;;;;;5069597;28;20032;-75
2021/07/26 08:40:24;;;;;;;;;;;19.40;99.90;;;;;;5070430;28;19990;-74
2021/07/26 08:43:02;;;;;;;;;;;19.50;99.90;;;;;;5068478;28;19984;-75
2021/07/26 08:45:34;;;;;;;;;;;19.70;99.90;;;;;;5056085;28;20375;-75
2021/07/26 08:48:08;;;;;;;;;;;19.90;99.90;;;;;;5079927;28;19935;-74
2021/07/26 08:50:41;;;;;;;;;;;20.10;99.90;;;;;;5070745;28;20382;-74
2021/07/26 08:53:08;;;;;;;;;;;20.30;99.90;;;;;;5070356;28;19967;-74
2021/07/26 08:55:41;;;;;;;;;;;20.40;99.90;;;;;;5067770;28;19924;-74
2021/07/26 08:58:15;;;;;;;;;;;20.50;99.90;;;;;;5062799;28;20031;-74
2021/07/26 09:00:42;;;;;;;;;;;20.50;99.90;;;;;;5064647;28;20027;-74
2021/07/26 09:03:14;;;;;;;;;;;20.60;99.90;;;;;;5054247;28;19925;-74
2021/07/26 09:05:45;;;;;;;;;;;20.60;99.90;;;;;;5049477;28;19924;-74
2021/07/26 09:08:12;;;;;;;;;;;20.70;99.90;;;;;;5071375;28;19978;-74
2021/07/26 09:10:42;;;;;;;;;;;20.80;99.90;;;;;;5069909;28;19924;-74
2021/07/26 09:13:31;;;;;;;;;;;20.90;99.90;;;;;;5057287;28;19931;-74
2021/07/26 09:16:13;;;;;;;;;;;21.00;99.90;;;;;;5072429;28;20027;-74
2021/07/26 09:18:45;;;;;;;;;;;21.00;99.90;;;;;;5067869;28;20378;-74
2021/07/26 09:21:17;;;;;;;;;;;21.10;99.90;;;;;;5069759;28;19982;-74
2021/07/26 09:24:04;;;;;;;;;;;20.90;99.90;;;;;;5066904;28;19971;-74
2021/07/26 09:26:36;;;;;;;;;;;20.90;99.90;;;;;;5061418;28;19924;-74
2021/07/26 09:29:25;;;;;;;;;;;20.90;99.90;;;;;;5070354;28;19936;-74
2021/07/26 09:31:58;;;;;;;;;;;20.90;99.90;;;;;;5053808;28;19960;-74
2021/07/26 09:34:24;;;;;;;;;;;21.00;99.90;;;;;;5066863;28;19931;-74
2021/07/26 09:36:51;;;;;;;;;;;21.00;99.90;;;;;;5063707;28;20023;-74
2021/07/26 09:39:25;;;;;;;;;;;21.00;99.90;;;;;;5067560;28;19960;-74
2021/07/26 09:41:59;;;;;;;;;;;21.20;99.90;;;;;;5066731;28;19925;-75
2021/07/26 09:44:26;;;;;;;;;;;21.40;99.90;;;;;;5055483;28;19963;-75
2021/07/26 09:47:17;;;;;;;;;;;21.70;99.90;;;;;;5068328;28;19931;-73
2021/07/26 09:49:49;;;;;;;;;;;22.00;99.90;;;;;;5065355;28;19960;-75
2021/07/26 09:52:22;;;;;;;;;;;22.30;99.90;;;;;;5054115;28;19933;-74
2021/07/26 09:54:55;;;;;;;;;;;22.30;99.90;;;;;;5070727;28;19931;-75
2021/07/26 09:57:23;;;;;;;;;;;22.40;99.90;;;;;;5072913;28;19964;-75
2021/07/26 09:59:55;;;;;;;;;;;22.40;99.90;;;;;;5069530;28;20028;-75
2021/07/26 10:02:25;;;;;;;;;;;22.40;99.90;;;;;;5052914;28;19928;-74
2021/07/26 10:04:52;;;;;;;;;;;22.40;99.90;;;;;;5058541;28;20366;-75
2021/07/26 10:07:20;;;;;;;;;;;22.30;99.90;;;;;;5072967;28;20015;-75
2021/07/26 10:09:52;;;;;;;;;;;22.30;99.90;;;;;;5069848;28;20433;-73
2021/07/26 10:12:19;;;;;;;;;;;22.20;99.90;;;;;;5069156;28;19928;-75
2021/07/26 10:14:47;;;;;;;;;;;22.20;99.90;;;;;;5067797;28;19929;-73
2021/07/26 10:17:19;;;;;;;;;;;22.30;99.90;;;;;;5068601;28;20329;-74
2021/07/26 10:19:51;;;;;;;;;;;22.30;99.90;;;;;;5070949;28;20288;-74
2021/07/26 10:22:25;;;;;;;;;;;22.40;99.90;;;;;;5068602;28;19963;-74
2021/07/26 10:25:14;;;;;;;;;;;22.50;99.90;;;;;;5074204;28;19924;-74
2021/07/26 10:27:41;;;;;;;;;;;22.50;99.90;;;;;;5068572;28;20045;-73
2021/07/26 10:30:08;;;;;;;;;;;22.60;99.90;;;;;;5072482;28;19978;-74
2021/07/26 10:32:35;;;;;;;;;;;22.70;99.90;;;;;;5073275;28;19956;-74
2021/07/26 10:35:04;;;;;;;;;;;22.80;99.90;;;;;;5067447;28;20363;-74
2021/07/26 10:37:41;;;;;;;;;;;23.00;99.90;;;;;;5070242;28;19930;-74
2021/07/26 10:40:17;;;;;;;;;;;23.10;99.90;;;;;;5052609;28;19976;-74
2021/07/26 10:42:52;;;;;;;;;;;23.20;99.90;;;;;;5053149;28;19925;-74
2021/07/26 10:45:33;;;;;;;;;;;23.20;99.90;;;;;;5068118;28;19939;-74
2021/07/26 10:48:19;;;;;;;;;;;23.40;99.90;;;;;;5072320;28;19959;-74
2021/07/26 10:50:46;;;;;;;;;;;23.60;99.90;;;;;;5052418;28;19924;-74
2021/07/26 10:53:36;;;;;;;;;;;23.80;99.90;;;;;;5036032;28;19931;-75
2021/07/26 10:56:09;;;;;;;;;;;24.10;99.90;;;;;;5064552;28;19952;-74
2021/07/26 10:58:39;;;;;;;;;;;24.30;99.90;;;;;;5072066;28;19960;-74
2021/07/26 11:01:20;;;;;;;;;;;24.40;99.90;;;;;;5072764;28;19924;-74
2021/07/26 11:03:52;;;;;;;;;;;24.50;99.90;;;;;;5068307;28;20020;-74
2021/07/26 11:06:36;;;;;;;;;;;24.50;99.90;;;;;;5059999;28;20313;-75
2021/07/26 11:09:19;;;;;;;;;;;24.50;99.90;;;;;;5068737;28;19991;-74
2021/07/26 11:11:51;;;;;;;;;;;24.50;99.90;;;;;;5057169;28;20434;-74
2021/07/26 11:14:19;;;;;;;;;;;24.60;99.90;;;;;;5074942;28;19968;-75
2021/07/26 11:17:02;;;;;;;;;;;24.70;99.90;;;;;;5061833;28;19930;-74
2021/07/26 11:19:40;;;;;;;;;;;24.80;99.90;;;;;;5072538;28;19924;-74
2021/07/26 11:22:14;;;;;;;;;;;24.90;99.90;;;;;;5071071;28;20020;-75
2021/07/26 11:24:46;;;;;;;;;;;25.00;99.90;;;;;;5058602;28;20012;-74
2021/07/26 11:27:24;;;;;;;;;;;25.10;99.90;;;;;;5059112;28;20473;-74
2021/07/26 11:29:56;;;;;;;;;;;25.30;99.90;;;;;;5072594;28;20027;-74
2021/07/26 11:32:27;;;;;;;;;;;25.40;99.90;;;;;;5071657;28;19999;-74
2021/07/26 11:34:59;;;;;;;;;;;25.40;99.90;;;;;;5067635;28;19925;-74
2021/07/26 11:37:32;;;;;;;;;;;25.50;99.90;;;;;;5067510;28;20025;-74
2021/07/26 11:40:00;;;;;;;;;;;25.60;99.90;;;;;;5051438;28;19924;-74
2021/07/26 11:42:41;;;;;;;;;;;25.70;99.90;;;;;;5050993;28;20338;-74
2021/07/26 11:45:16;;;;;;;;;;;25.70;99.90;;;;;;5071430;28;19955;-74
2021/07/26 11:48:00;;;;;;;;;;;25.90;99.90;;;;;;5069695;28;19924;-74
2021/07/26 11:50:36;;;;;;;;;;;25.90;99.90;;;;;;5072864;28;20015;-74
2021/07/26 11:53:08;;;;;;;;;;;26.00;99.90;;;;;;5071316;28;20007;-74
2021/07/26 11:55:40;;;;;;;;;;;26.10;99.90;;;;;;5063014;28;19955;-74
2021/07/26 11:58:13;;;;;;;;;;;26.10;99.90;;;;;;5072407;28;20015;-74
2021/07/26 12:00:42;;;;;;;;;;;26.20;99.90;;;;;;5067957;28;19964;-74
2021/07/26 12:03:14;;;;;;;;;;;26.00;99.90;;;;;;5067011;28;19931;-73
2021/07/26 12:05:41;;;;;;;;;;;26.10;99.90;;;;;;5051915;28;19959;-74
2021/07/26 12:08:13;;;;;;;;;;;26.20;99.90;;;;;;5062571;28;20020;-74
2021/07/26 12:10:42;;;;;;;;;;;26.40;99.90;;;;;;5069183;28;20394;-74
2021/07/26 12:13:10;;;;;;;;;;;26.50;99.90;;;;;;5066966;28;19971;-74
2021/07/26 12:15:37;;;;;;;;;;;26.60;99.90;;;;;;5061155;28;19930;-74
2021/07/26 12:18:16;;;;;;;;;;;26.50;99.90;;;;;;5070589;28;19955;-74
2021/07/26 12:20:51;;;;;;;;;;;26.50;99.90;;;;;;5050533;28;19925;-74
2021/07/26 12:23:27;;;;;;;;;;;26.70;99.90;;;;;;5050703;28;20031;-74
2021/07/26 12:26:09;;;;;;;;;;;26.60;99.90;;;;;;5040868;28;19956;-74
2021/07/26 12:28:40;;;;;;;;;;;26.70;99.90;;;;;;5070776;28;20015;-74
2021/07/26 12:31:23;;;;;;;;;;;26.60;99.90;;;;;;5071515;28;19964;-73
2021/07/26 12:34:16;;;;;;;;;;;26.60;99.90;;;;;;5067450;28;20407;-74
2021/07/26 12:36:42;;;;;;;;;;;26.50;99.90;;;;;;5068890;28;19934;-74
2021/07/26 12:39:15;;;;;;;;;;;26.50;99.90;;;;;;5064040;28;20023;-74
2021/07/26 12:41:44;;;;;;;;;;;26.50;99.90;;;;;;5050268;28;20019;-74
2021/07/26 12:44:26;;;;;;;;;;;26.60;99.90;;;;;;5050171;28;19986;-74
2021/07/26 12:46:53;;;;;;;;;;;26.60;99.90;;;;;;5069240;28;19968;-74
2021/07/26 12:49:22;;;;;;;;;;;26.70;99.90;;;;;;5067392;28;19924;-74
2021/07/26 12:51:54;;;;;;;;;;;26.70;99.90;;;;;;5066958;28;19954;-74
2021/07/26 12:54:41;;;;;;;;;;;26.60;99.90;;;;;;5067527;28;19929;-73
2021/07/26 12:57:07;;;;;;;;;;;26.60;99.90;;;;;;5070659;28;20448;-75
2021/07/26 12:59:39;;;;;;;;;;;26.60;99.90;;;;;;5070661;28;19963;-73
2021/07/26 13:02:05;;;;;;;;;;;26.50;99.90;;;;;;5071433;28;19928;-75
2021/07/26 13:04:32;;;;;;;;;;;26.60;99.90;;;;;;5068356;28;19938;-73
2021/07/26 13:07:04;;;;;;;;;;;26.60;99.90;;;;;;5054115;28;19928;-74
2021/07/26 13:09:30;;;;;;;;;;;26.70;99.90;;;;;;5066766;28;19931;-73
2021/07/26 13:12:02;;;;;;;;;;;26.80;99.90;;;;;;5034287;28;19979;-74
2021/07/26 13:14:29;;;;;;;;;;;26.90;99.90;;;;;;5051160;28;19931;-74
2021/07/26 13:17:00;;;;;;;;;;;27.10;99.90;;;;;;5070339;28;19924;-75
2021/07/26 13:19:32;;;;;;;;;;;27.20;99.90;;;;;;5070227;28;19924;-74
2021/07/26 13:21:59;;;;;;;;;;;27.40;99.90;;;;;;5068315;28;20027;-74
2021/07/26 13:24:31;;;;;;;;;;;27.50;99.90;;;;;;5058955;28;19928;-74
2021/07/26 13:27:03;;;;;;;;;;;27.80;99.90;;;;;;5063776;28;19952;-75
2021/07/26 13:29:34;;;;;;;;;;;27.90;99.90;;;;;;5073272;28;19990;-74
2021/07/26 13:32:06;;;;;;;;;;;27.90;99.90;;;;;;5058426;28;20019;-74
2021/07/26 13:34:33;;;;;;;;;;;27.90;99.90;;;;;;5053329;28;19932;-74
2021/07/26 13:36:59;;;;;;;;;;;27.90;99.90;;;;;;5076554;28;19924;-74
2021/07/26 13:39:26;;;;;;;;;;;28.00;99.90;;;;;;5073669;28;20020;-74
2021/07/26 13:41:55;;;;;;;;;;;28.10;99.90;;;;;;5073252;28;20027;-74
2021/07/26 13:44:22;;;;;;;;;;;28.30;99.90;;;;;;5073000;28;19931;-74
2021/07/26 13:46:49;;;;;;;;;;;28.10;99.90;;;;;;5069424;28;20010;-75
2021/07/26 13:49:15;;;;;;;;;;;27.80;99.90;;;;;;5072804;28;19983;-75
2021/07/26 13:51:47;;;;;;;;;;;27.60;99.90;;;;;;5056821;28;19967;-75
2021/07/26 13:54:14;;;;;;;;;;;27.50;99.90;;;;;;5057243;28;20110;-74
2021/07/26 13:56:45;;;;;;;;;;;27.70;99.90;;;;;;5050926;28;20294;-75
2021/07/26 13:59:12;;;;;;;;;;;28.10;99.90;;;;;;5076994;28;20372;-74
2021/07/26 14:01:39;;;;;;;;;;;28.40;99.90;;;;;;5076311;28;19956;-75
2021/07/26 14:04:10;;;;;;;;;;;28.60;99.90;;;;;;5073333;28;20020;-74
2021/07/26 14:06:37;;;;;;;;;;;29.00;99.90;;;;;;5068354;28;19924;-74
2021/07/26 14:09:09;;;;;;;;;;;29.30;99.60;;;;;;5056563;28;20043;-75
2021/07/26 14:11:37;;;;;;;;;;;29.50;99.30;;;;;;5073138;28;19975;-74
2021/07/26 14:14:09;;;;;;;;;;;29.50;99.30;;;;;;5057854;28;20015;-74
2021/07/26 14:16:36;;;;;;;;;;;29.70;99.70;;;;;;5068161;28;19924;-75
2021/07/26 14:19:02;;;;;;;;;;;29.60;98.80;;;;;;5073486;28;20019;-74
2021/07/26 14:21:34;;;;;;;;;;;29.30;97.40;;;;;;5073251;28;20020;-75
2021/07/26 14:24:06;;;;;;;;;;;29.10;97.80;;;;;;5048376;28;19928;-74
2021/07/26 14:26:37;;;;;;;;;;;29.20;98.00;;;;;;5075307;28;19930;-74
2021/07/26 14:29:09;;;;;;;;;;;29.50;97.20;;;;;;5076704;28;20015;-74
2021/07/26 14:31:41;;;;;;;;;;;30.00;96.20;;;;;;5076079;28;20031;-74
2021/07/26 14:34:13;;;;;;;;;;;30.20;93.50;;;;;;5074560;28;19935;-74
2021/07/26 14:36:45;;;;;;;;;;;30.30;95.10;;;;;;5072052;28;19928;-74
2021/07/26 14:39:19;;;;;;;;;;;29.90;93.80;;;;;;5068503;28;20366;-74